首页
METAR-TAF:

METAR-TAF

机场 :

Cranfield, 英格兰

纬度: 52-04N, 经度: 000-37W, 海拔: 111米

当前天气观测

该预报发布于7小时和53分钟前的17:50 UTC
风速6节,风向东转东南
温度 5°C
湿度 93%
气压 993 hPa
能见度10公里或以上
少量云层高于3500英尺

METAR: EGTC 131750Z 11006KT 9999 FEW035 05/04 Q0993

时间: 01:43 (01:43 UTC)

预报

该预报发布于11小时和38分钟前的14:05 UTC
预报有效从13日的 15点(UTC)到 13日的 18点(UTC)
风速8节,风向
能见度10公里或以上
少量云层高于3500英尺

TAF: EGTC 131405Z 1315/1318 19008KT 9999 FEW035

超过4000个机场的气象观测和天气预报(METAR&TAF报告)。

可查询的气象台以黄色和红色小点在地图上表示。

将鼠标移到小点上方,可查看气象台名称。

然后点击查看天气观测和预报。

如需切换地图:点击带黑十字的绿色按钮放大地图;点击带横线的绿色按钮缩小地图;或者点击绿色箭头查看邻近地区的地图。


METAR-TAF: